< < Back
Terminal Aerodrome Forecast


Current Version              Previous Versions:   1  2  3  4  5  6  7  8  9  

Terminal Aerodrome Forecast

021
FTUS42 KILM 021200 CCA
TAFFLO
TAF COR
KFLO 021202Z 0212/0312 VRB03KT P6SM SCT003
     FM021400 25005KT P6SM SCT020
     FM021800 20008KT P6SM SCT035
     FM022200 18006KT P6SM VCTS SCT050CB SCT100
     FM030000 20005KT P6SM FEW050 SCT250=

Latest METAR

312
SAUS70 KWBC 021700 RRA
MTRFLO
METAR KFLO 021653Z 15005KT 10SM FEW036 34/23 A3005 RMK AO2 SLP174
T03440228


USA.gov is the U.S. government's official web portal to all federal, state and local government web resources and services.